Date,TemperatureHighF,TemperatureAvgF,TemperatureLowF,DewpointHighF,DewpointAvgF,DewpointLowF,HumidityHigh,HumidityAvg,HumidityLow,PressureMaxIn,PressureMinIn,WindSpeedMaxMPH,WindSpeedAvgMPH,GustSpeedMaxMPH,PrecipitationSumIn
2013-5-1,85.4,73.0,67.0,74.0,69.4,66.0,99,89,64,30.01,29.93,4,0,9,0.36
2013-5-2,77.2,70.3,67.8,73.0,69.3,67.0,99,96,86,29.96,29.80,7,1,10,3.48
2013-5-3,85.1,74.0,66.7,71.0,69.2,66.0,99,86,59,29.84,29.67,5,1,9,0.64
2013-5-4,85.4,74.9,65.8,72.0,68.7,65.0,99,82,56,29.80,29.70,4,1,9,0.00
2013-5-5,79.2,72.1,63.3,67.0,61.7,52.0,96,72,42,29.94,29.76,6,1,15,0.00
2013-5-6,81.7,69.6,56.1,66.0,61.5,54.0,99,77,56,30.02,29.93,3,0,10,0.00
2013-5-7,82.2,71.0,59.2,66.0,60.0,56.0,92,70,47,30.07,29.98,7,1,10,0.00
2013-5-8,83.7,72.2,59.3,66.0,61.1,58.0,97,71,42,30.14,30.05,3,0,8,0.00
2013-5-9,88.0,76.2,63.4,73.0,66.8,60.0,89,74,49,30.14,30.06,4,1,11,0.00
2013-5-10,89.2,78.2,70.3,74.0,71.5,69.0,97,81,54,30.14,30.02,5,1,12,0.09
2013-5-11,88.6,78.3,71.0,77.0,73.0,70.0,99,85,63,30.08,29.98,7,1,13,0.07
2013-5-12,90.7,77.1,69.6,76.0,71.5,68.0,99,85,48,30.07,29.94,4,0,9,0.09
2013-5-13,85.3,76.4,69.9,73.0,68.9,65.0,98,79,52,30.10,30.00,7,1,10,0.00
2013-5-14,81.1,73.5,65.4,66.0,61.1,56.0,88,67,46,30.19,30.08,9,1,14,0.00
2013-5-15,81.8,71.9,62.1,65.0,62.0,60.0,92,73,49,30.20,30.11,5,1,9,0.00
2013-5-16,83.2,73.0,61.7,67.0,63.3,60.0,95,73,53,30.12,30.05,5,1,8,0.00
2013-5-17,84.4,74.7,65.4,74.0,69.3,64.0,95,83,68,30.10,30.02,6,1,10,0.01
2013-5-18,86.5,77.8,69.0,75.0,71.2,68.0,98,81,62,30.11,30.04,7,1,10,0.00
2013-5-19,87.1,78.1,69.3,72.0,69.9,68.0,97,77,56,30.11,30.01,5,1,11,0.00
2013-5-20,80.7,75.1,67.1,74.0,71.1,65.0,96,87,75,30.08,29.99,5,0,11,0.31
2013-5-21,84.6,75.2,67.4,75.0,70.7,67.0,99,86,68,30.06,29.94,5,1,12,0.08
2013-5-22,85.9,76.2,70.4,76.0,71.6,68.0,98,86,66,29.97,29.91,7,1,12,0.02
2013-5-23,89.3,79.9,72.2,75.0,72.5,67.0,98,80,49,30.01,29.91,5,1,7,0.01
2013-5-24,92.8,81.9,72.4,76.0,71.4,63.0,97,73,40,30.08,29.96,6,1,9,0.00
2013-5-25,85.0,78.8,73.3,74.0,68.6,65.0,93,72,54,30.18,30.05,9,1,12,0.01
2013-5-26,84.9,76.0,65.4,70.0,65.4,62.0,87,71,53,30.18,30.12,5,1,10,0.00
2013-5-27,84.0,76.8,67.6,73.0,69.1,63.0,90,77,66,30.17,30.08,9,1,13,0.00
2013-5-28,83.8,78.2,74.7,75.0,72.4,71.0,91,83,69,30.12,30.06,6,1,13,0.02
2013-5-29,80.1,74.2,69.9,75.0,71.8,69.0,98,92,79,30.11,30.04,9,1,16,2.43
2013-5-30,80.8,76.2,72.0,76.0,72.1,68.0,95,87,74,30.09,30.01,7,2,16,0.29
2013-5-31,84.4,77.4,73.7,76.0,73.5,71.0,97,88,73,30.07,30.01,9,1,11,0.13